Time;durP1;ratioP1;P1;durP2;ratioP2;P2;SDS_P1;SDS_P2;PMS_P1;PMS_P2;Temp;Humidity;BMP_temperature;BMP_pressure;BME280_temperature;BME280_humidity;BME280_pressure;Samples;Min_cycle;Max_cycle;Signal;HPM_P1;HPM_P2
2022/05/16 00:01:12;;;;;;;6.65;5.30;;;;;;;12.78;75.45;96806.88;5115394;28;20477;-63
2022/05/16 00:03:38;;;;;;;10.55;5.88;;;;;;;12.68;76.14;96809.03;5115358;28;20085;-64
2022/05/16 00:06:04;;;;;;;6.82;6.20;;;;;;;12.59;76.33;96812.91;5115126;28;20450;-62
2022/05/16 00:08:29;;;;;;;7.57;6.15;;;;;;;12.54;76.98;96806.13;5115050;28;20423;-62
2022/05/16 00:10:56;;;;;;;9.63;6.93;;;;;;;12.54;76.61;96806.13;5115178;28;20024;-63
2022/05/16 00:13:22;;;;;;;8.50;5.72;;;;;;;12.48;76.31;96807.25;5114921;28;20481;-63
2022/05/16 00:15:47;;;;;;;6.60;6.00;;;;;;;12.48;76.33;96808.09;5115012;28;20058;-62
2022/05/16 00:18:13;;;;;;;9.90;6.18;;;;;;;12.47;76.54;96803.78;5115030;28;20453;-61
2022/05/16 00:20:39;;;;;;;6.97;6.10;;;;;;;12.43;76.85;96806.59;5114876;27;20426;-64
2022/05/16 00:23:04;;;;;;;9.60;6.15;;;;;;;12.38;77.32;96812.03;5114853;28;20016;-63
2022/05/16 00:25:30;;;;;;;8.00;6.30;;;;;;;12.40;77.32;96807.53;5114826;28;20084;-62
2022/05/16 00:27:55;;;;;;;6.72;6.13;;;;;;;12.40;76.38;96804.09;5114793;28;20099;-65
2022/05/16 00:30:21;;;;;;;7.95;6.50;;;;;;;12.36;76.73;96812.09;5114782;28;20027;-64
2022/05/16 00:32:50;;;;;;;7.30;6.70;;;;;;;12.32;77.45;96810.50;5114867;28;20023;-63
2022/05/16 00:35:19;;;;;;;10.30;6.07;;;;;;;12.29;77.50;96812.41;5114570;28;20028;-63
2022/05/16 00:37:45;;;;;;;11.23;6.32;;;;;;;12.26;77.69;96801.09;5114636;28;20023;-65
2022/05/16 00:40:13;;;;;;;7.72;5.68;;;;;;;12.26;77.13;96806.34;5114563;28;20488;-64
2022/05/16 00:42:40;;;;;;;8.02;5.80;;;;;;;12.26;76.70;96808.13;5114190;28;20023;-63
2022/05/16 00:45:08;;;;;;;10.73;5.60;;;;;;;12.28;76.42;96813.31;5114483;28;20094;-63
2022/05/16 00:47:33;;;;;;;6.45;5.75;;;;;;;12.25;76.05;96807.28;5114331;28;20381;-62
2022/05/16 00:50:01;;;;;;;6.47;5.82;;;;;;;12.21;76.48;96804.81;5114310;28;20016;-61
2022/05/16 00:52:35;;;;;;;7.78;6.35;;;;;;;12.16;76.49;96810.25;5114306;28;20443;-62
2022/05/16 00:55:09;;;;;;;8.70;6.22;;;;;;;12.13;76.50;96806.00;5114152;28;20035;-66
2022/05/16 00:57:41;;;;;;;7.40;6.80;;;;;;;12.10;77.17;96810.53;5114288;28;20024;-61
2022/05/16 01:00:10;;;;;;;7.75;6.95;;;;;;;12.08;77.64;96807.97;5114244;28;20024;-64
2022/05/16 01:05:27;;;;;;;6.75;6.15;;;;;;;12.04;77.12;96795.00;5114117;28;20112;-65
2022/05/16 01:07:58;;;;;;;9.43;6.38;;;;;;;11.97;77.11;96808.34;5114053;28;20024;-64
2022/05/16 01:10:23;;;;;;;;;;;;;;;11.94;78.20;96803.22;5114556;28;20030;-64
2022/05/16 01:12:51;;;;;;;8.00;6.32;;;;;;;11.86;78.19;96798.28;5114221;28;19912;-63
2022/05/16 01:15:29;;;;;;;8.80;6.90;;;;;;;11.79;78.63;96804.69;5113931;28;20063;-66
2022/05/16 01:17:55;;;;;;;8.73;7.40;;;;;;;11.82;78.86;96804.56;5113866;28;20084;-66
2022/05/16 01:20:21;;;;;;;8.77;7.68;;;;;;;11.85;78.88;96800.94;5113320;28;20047;-63
2022/05/16 01:22:50;;;;;;;9.38;8.48;;;;;;;11.79;79.78;96799.44;5113850;28;20019;-64
2022/05/16 01:25:24;;;;;;;10.35;8.45;;;;;;;11.81;79.81;96791.50;5113855;28;20023;-64
2022/05/16 01:27:52;;;;;;;9.60;8.10;;;;;;;11.83;79.56;96794.94;5114017;28;20457;-65
2022/05/16 01:30:22;;;;;;;8.68;7.85;;;;;;;11.86;79.82;96793.03;5113705;28;20027;-65
2022/05/16 01:32:48;;;;;;;9.13;8.23;;;;;;;11.84;79.92;96789.63;5113685;28;20026;-64
2022/05/16 01:35:19;;;;;;;8.38;7.55;;;;;;;11.85;79.80;96790.47;5113615;28;20039;-62
2022/05/16 01:40:28;;;;;;;7.88;7.07;;;;;;;11.89;78.33;96792.06;5113950;28;20085;-62
2022/05/16 01:42:54;;;;;;;9.43;8.52;;;;;;;11.94;78.25;96797.13;5113331;28;20489;-65
2022/05/16 01:45:19;;;;;;;9.43;8.30;;;;;;;11.96;78.61;96796.16;5113565;28;20028;-64
2022/05/16 01:47:45;;;;;;;9.27;8.35;;;;;;;11.94;78.98;96794.50;5113558;28;20523;-65
2022/05/16 01:50:11;;;;;;;9.70;8.30;;;;;;;11.93;78.74;96795.41;5113522;28;20035;-62
2022/05/16 01:52:37;;;;;;;9.82;8.93;;;;;;;11.91;78.62;96790.22;5113573;28;20060;-62
2022/05/16 01:55:04;;;;;;;9.57;8.68;;;;;;;11.88;78.80;96796.47;5113366;28;20024;-64
2022/05/16 01:57:29;;;;;;;10.40;9.27;;;;;;;11.85;79.65;96790.47;5113485;28;20073;-66
2022/05/16 01:59:55;;;;;;;9.45;8.55;;;;;;;11.86;79.44;96794.81;5113399;28;20019;-63
2022/05/16 02:02:20;;;;;;;11.02;9.90;;;;;;;11.84;79.79;96797.50;5113457;28;20051;-63
2022/05/16 02:04:46;;;;;;;11.40;10.07;;;;;;;11.86;79.95;96798.28;5113259;28;20462;-62
2022/05/16 02:07:12;;;;;;;10.48;9.48;;;;;;;11.86;80.02;96798.28;5113293;28;20020;-61
2022/05/16 02:09:37;;;;;;;11.70;10.55;;;;;;;11.83;80.83;96801.00;5113338;28;20470;-61
2022/05/16 02:12:03;;;;;;;11.52;10.32;;;;;;;11.76;81.37;96802.16;5113298;28;20026;-65
2022/05/16 02:14:29;;;;;;;16.48;10.50;;;;;;;11.75;81.46;96796.06;5113222;28;20114;-63
2022/05/16 02:16:54;;;;;;;11.38;10.30;;;;;;;11.76;81.19;96796.94;5113204;28;20016;-64
2022/05/16 02:19:19;;;;;;;11.85;10.75;;;;;;;11.77;81.10;96795.16;5113261;28;20023;-63
2022/05/16 02:24:38;;;;;;;11.13;10.02;;;;;;;11.84;80.25;96792.25;5113492;28;20401;-66
2022/05/16 02:27:04;;;;;;;13.60;10.85;;;;;;;11.84;80.47;96799.25;5113220;28;20020;-62
2022/05/16 02:29:30;;;;;;;12.60;11.40;;;;;;;11.88;81.43;96800.84;5113032;28;20484;-62
2022/05/16 02:31:55;;;;;;;13.32;11.88;;;;;;;11.88;81.67;96808.69;5113892;28;20027;-62
2022/05/16 02:34:21;;;;;;;13.55;12.10;;;;;;;11.90;81.82;96793.78;5116933;28;20024;-65
2022/05/16 02:36:47;;;;;;;12.43;11.15;;;;;;;11.94;81.85;96791.88;5116963;28;20020;-66
2022/05/16 02:39:15;;;;;;;11.90;10.75;;;;;;;11.96;80.83;96797.91;5116960;28;20030;-62
2022/05/16 02:41:41;;;;;;;11.70;10.60;;;;;;;11.97;80.36;96797.00;5116789;27;20059;-63
2022/05/16 02:44:07;;;;;;;12.55;11.35;;;;;;;11.93;80.57;96798.91;5116527;28;20046;-64
2022/05/16 02:46:32;;;;;;;11.48;10.40;;;;;;;11.97;80.46;96799.63;5116870;28;20095;-63
2022/05/16 02:48:58;;;;;;;11.20;10.13;;;;;;;11.93;79.89;96787.56;5116903;28;20439;-63
2022/05/16 02:51:24;;;;;;;15.38;11.45;;;;;;;11.93;79.98;96793.66;5116813;28;20020;-64
2022/05/16 02:53:50;;;;;;;12.57;11.27;;;;;;;11.92;80.19;96797.19;5116546;28;20093;-64
2022/05/16 02:56:16;;;;;;;13.13;11.82;;;;;;;11.91;80.33;96794.59;5116588;28;20447;-63
2022/05/16 02:58:43;;;;;;;13.77;12.38;;;;;;;11.88;80.73;96791.22;5116570;28;20103;-66
2022/05/16 03:01:10;;;;;;;12.02;10.38;;;;;;;11.89;80.55;96794.66;5116597;28;20102;-64
2022/05/16 03:03:37;;;;;;;13.45;10.98;;;;;;;11.94;80.20;96804.97;5116427;28;20020;-61
2022/05/16 03:06:02;;;;;;;12.73;11.10;;;;;;;11.92;79.69;96805.03;5116503;28;20019;-66
2022/05/16 03:08:29;;;;;;;16.08;11.68;;;;;;;11.95;80.49;96809.34;5116406;28;20488;-62
2022/05/16 03:10:54;;;;;;;12.40;11.20;;;;;;;11.98;80.59;96806.59;5116316;28;20081;-66
2022/05/16 03:13:20;;;;;;;12.02;10.82;;;;;;;11.94;80.40;96808.47;5116299;28;20407;-63
2022/05/16 03:15:46;;;;;;;13.65;11.80;;;;;;;11.94;80.45;96804.97;5116290;28;20023;-62
2022/05/16 03:18:12;;;;;;;15.10;12.75;;;;;;;11.94;81.33;96805.84;5116203;28;20476;-66
2022/05/16 03:20:38;;;;;;;12.73;11.55;;;;;;;11.93;81.47;96806.78;5116094;28;20096;-63
2022/05/16 03:23:03;;;;;;;12.40;11.30;;;;;;;11.97;80.87;96812.72;5116168;28;20088;-65
2022/05/16 03:25:29;;;;;;;11.85;10.65;;;;;;;12.03;80.80;96814.25;5116104;28;20060;-66
2022/05/16 03:27:55;;;;;;;12.30;11.10;;;;;;;12.08;80.63;96814.97;5116010;28;20114;-66
2022/05/16 03:30:21;;;;;;;11.80;10.60;;;;;;;12.16;80.53;96822.53;5115919;28;20381;-61
2022/05/16 03:32:47;;;;;;;13.52;12.23;;;;;;;12.14;81.00;96825.22;5115935;28;20024;-65
2022/05/16 03:35:13;;;;;;;14.15;12.60;;;;;;;12.16;81.60;96819.91;5115695;28;20027;-63
2022/05/16 03:37:38;;;;;;;13.18;11.38;;;;;;;12.19;81.39;96822.41;5115835;28;20043;-63
2022/05/16 03:42:48;;;;;;;12.70;11.23;;;;;;;12.28;80.96;96829.88;5115360;28;20488;-65
2022/05/16 03:45:14;;;;;;;12.10;10.70;;;;;;;12.35;81.25;96822.66;5115715;28;20047;-63
2022/05/16 03:47:40;;;;;;;12.18;10.98;;;;;;;12.49;81.54;96827.31;5115561;28;20465;-63
2022/05/16 03:50:06;;;;;;;10.45;9.18;;;;;;;12.82;80.71;96820.72;5115650;28;20031;-67
2022/05/16 03:52:32;;;;;;;11.70;9.93;;;;;;;13.21;79.38;96830.41;5115536;28;20020;-64
2022/05/16 03:54:58;;;;;;;10.25;8.80;;;;;;;13.66;78.20;96819.69;5115388;28;20057;-65
2022/05/16 03:57:24;;;;;;;8.88;8.02;;;;;;;14.11;75.96;96817.59;5115439;28;20031;-64
2022/05/16 03:59:50;;;;;;;8.32;7.53;;;;;;;14.56;74.79;96819.84;5114128;28;20022;-61
2022/05/16 04:02:16;;;;;;;8.05;7.25;;;;;;;14.99;73.73;96826.56;5115389;28;20023;-66
2022/05/16 04:04:43;;;;;;;8.75;7.82;;;;;;;15.44;72.80;96832.09;5115265;28;20472;-63
2022/05/16 04:07:09;;;;;;;8.00;7.00;;;;;;;15.95;71.57;96836.44;5115256;28;20098;-65
2022/05/16 04:09:35;;;;;;;7.88;6.93;;;;;;;16.44;70.12;96837.31;5115295;28;20043;-61
2022/05/16 04:12:01;;;;;;;8.77;7.88;;;;;;;16.90;68.94;96833.78;5115157;28;20035;-66
2022/05/16 04:14:27;;;;;;;7.05;6.20;;;;;;;17.25;67.35;96840.53;5115133;28;20046;-65
2022/05/16 04:16:52;;;;;;;6.75;6.13;;;;;;;17.68;65.75;96837.09;5115070;28;20027;-62
2022/05/16 04:19:18;;;;;;;6.88;6.28;;;;;;;18.10;64.63;96840.69;5115131;28;20487;-65
2022/05/16 04:21:44;;;;;;;10.88;5.70;;;;;;;18.52;63.47;96841.56;5114979;28;20488;-64
2022/05/16 04:24:10;;;;;;;5.97;5.47;;;;;;;18.86;62.02;96834.94;5114947;28;20019;-62
2022/05/16 04:26:36;;;;;;;6.57;5.93;;;;;;;19.19;61.26;96847.75;5115166;28;20031;-64
2022/05/16 04:29:03;;;;;;;6.45;5.75;;;;;;;19.51;60.01;96849.13;5114944;28;20408;-64
2022/05/16 04:31:29;;;;;;;5.97;5.47;;;;;;;19.86;59.86;96849.41;5114683;28;20028;-61
2022/05/16 04:33:55;;;;;;;5.90;5.40;;;;;;;20.15;58.52;96843.84;5114652;28;20026;-64
2022/05/16 04:36:20;;;;;;;7.68;5.70;;;;;;;20.42;58.32;96856.94;5114691;28;20815;-62
2022/05/16 04:38:46;;;;;;;6.40;5.70;;;;;;;20.73;57.69;96858.25;5114644;27;20019;-63
2022/05/16 04:43:56;;;;;;;7.70;5.68;;;;;;;21.31;56.72;96865.50;5114429;28;20046;-64
2022/05/16 04:46:21;;;;;;;6.30;5.75;;;;;;;21.53;56.88;96862.03;5114545;28;20028;-61
2022/05/16 04:48:47;;;;;;;7.13;6.53;;;;;;;21.76;55.68;96862.03;5114471;28;20046;-63
2022/05/16 04:51:14;;;;;;;7.45;6.75;;;;;;;21.97;55.42;96871.97;5114501;28;20016;-60
2022/05/16 04:53:39;;;;;;;7.00;6.40;;;;;;;22.16;56.02;96867.84;5114336;28;20465;-62
2022/05/16 04:56:07;;;;;;;7.00;6.35;;;;;;;22.44;55.06;96873.59;5113738;27;20030;-63
2022/05/16 04:58:33;;;;;;;6.40;5.80;;;;;;;22.48;55.41;96875.03;5114349;28;20024;-60
2022/05/16 05:01:03;;;;;;;11.20;7.55;;;;;;;22.67;53.97;96876.22;5114442;28;20066;-63
2022/05/16 05:03:30;;;;;;;;;;;;;;;22.94;53.34;96872.25;5114685;28;20030;-61
2022/05/16 05:05:56;;;;;;;8.70;6.40;;;;;;;23.09;53.00;96870.94;5114301;28;19955;-61
2022/05/16 05:08:22;;;;;;;10.98;6.65;;;;;;;23.26;53.07;96868.69;5114127;28;20055;-63
2022/05/16 05:16:19;;;;;;;10.77;5.75;;;;;;;23.87;52.52;96866.19;5114199;28;20488;-63
2022/05/16 05:18:45;;;;;;;7.53;6.20;;;;;;;24.08;52.07;96873.34;5113976;28;20083;-60
2022/05/16 05:21:12;;;;;;;6.93;6.18;;;;;;;24.38;51.68;96870.75;5113912;28;20327;-60
2022/05/16 05:23:39;;;;;;;6.63;6.03;;;;;;;24.60;50.89;96867.00;5113922;28;20019;-61
2022/05/16 05:26:07;;;;;;;6.65;5.95;;;;;;;24.74;50.46;96869.25;5113814;28;20064;-60
2022/05/16 05:28:34;;;;;;;6.78;6.18;;;;;;;24.88;50.69;96867.19;5113825;28;20019;-61
2022/05/16 05:31:01;;;;;;;6.45;5.95;;;;;;;25.08;50.82;96870.69;5113668;28;20473;-62
2022/05/16 05:33:27;;;;;;;6.93;5.60;;;;;;;25.20;50.27;96870.53;5113631;28;20076;-63
2022/05/16 05:35:53;;;;;;;7.32;6.25;;;;;;;25.46;48.96;96878.81;5113730;28;20377;-60
2022/05/16 05:38:19;;;;;;;6.20;5.60;;;;;;;25.61;48.90;96879.22;5113622;28;20024;-59
2022/05/16 05:40:45;;;;;;;6.22;5.50;;;;;;;25.79;47.94;96874.94;5113698;28;20058;-62
2022/05/16 05:43:11;;;;;;;7.55;5.63;;;;;;;25.92;47.98;96877.28;5113227;28;20370;-62
2022/05/16 05:45:38;;;;;;;7.60;5.65;;;;;;;25.93;48.14;96878.97;5113492;28;20050;-61
2022/05/16 05:48:05;;;;;;;6.25;5.68;;;;;;;26.16;47.55;96876.75;5113504;28;20461;-61
2022/05/16 05:50:31;;;;;;;6.00;5.50;;;;;;;26.02;46.76;96875.41;5113540;28;20015;-60
2022/05/16 05:52:58;;;;;;;9.65;6.20;;;;;;;26.17;46.96;96878.44;5113447;28;20020;-62
2022/05/16 05:55:25;;;;;;;10.70;6.45;;;;;;;26.19;47.46;96870.25;5113281;28;20069;-60
2022/05/16 05:57:51;;;;;;;9.07;6.13;;;;;;;26.32;47.66;96873.47;5113400;28;20020;-61
2022/05/16 06:00:19;;;;;;;11.23;5.63;;;;;;;26.37;47.34;96879.19;5112245;28;20016;-62
2022/05/16 06:02:45;;;;;;;6.28;5.68;;;;;;;26.57;47.87;96886.28;5113475;28;20031;-61
2022/05/16 06:05:15;;;;;;;7.72;5.82;;;;;;;26.64;47.63;96882.00;5113422;28;20016;-62
2022/05/16 06:07:41;;;;;;;;;;;;;;;26.84;47.07;96882.69;5117527;28;20043;-61
2022/05/16 06:10:07;;;;;;;8.68;6.03;;;;;;;27.08;46.49;96877.72;5117692;28;20285;-61
2022/05/16 06:12:33;;;;;;;9.60;6.50;;;;;;;27.10;44.49;96881.97;5117532;28;20069;-60
2022/05/16 06:14:59;;;;;;;6.90;5.88;;;;;;;27.28;45.05;96881.09;5117346;28;20039;-60
2022/05/16 06:17:25;;;;;;;9.75;5.15;;;;;;;27.46;44.63;96881.06;5117399;28;20053;-60
2022/05/16 06:19:50;;;;;;;6.30;5.80;;;;;;;27.61;43.50;96881.31;5117285;28;20110;-61
2022/05/16 06:22:16;;;;;;;6.03;5.53;;;;;;;27.85;43.89;96882.50;5117260;28;20034;-60
2022/05/16 06:27:29;;;;;;;7.10;5.45;;;;;;;28.01;44.07;96880.88;5117236;28;20447;-60
2022/05/16 06:29:56;;;;;;;5.93;4.93;;;;;;;28.10;44.30;96885.28;5117110;28;20031;-61
2022/05/16 06:32:22;;;;;;;5.50;4.95;;;;;;;28.08;43.96;96878.41;5117148;28;20019;-62
2022/05/16 06:34:48;;;;;;;6.05;5.50;;;;;;;28.37;42.92;96883.41;5117053;28;20102;-62
2022/05/16 06:37:15;;;;;;;7.53;5.60;;;;;;;28.38;43.13;96885.09;5116989;28;20485;-60
2022/05/16 06:39:40;;;;;;;6.72;5.72;;;;;;;28.46;43.78;96878.91;5116968;28;20056;-60
2022/05/16 06:42:06;;;;;;;5.88;4.85;;;;;;;28.54;42.93;96880.78;5116920;28;20039;-61
2022/05/16 06:44:32;;;;;;;8.85;5.72;;;;;;;28.73;42.00;96884.16;5116609;28;20496;-62
2022/05/16 06:46:58;;;;;;;9.30;5.38;;;;;;;29.06;42.98;96888.75;5116896;28;20042;-61
2022/05/16 06:49:24;;;;;;;7.40;4.97;;;;;;;29.26;40.61;96889.28;5116963;28;20461;-60
2022/05/16 06:51:50;;;;;;;10.00;5.22;;;;;;;29.20;39.96;96884.56;5116672;28;20027;-61
2022/05/16 06:54:16;;;;;;;6.40;5.65;;;;;;;29.16;41.33;96886.75;5116560;28;20059;-62
2022/05/16 06:56:41;;;;;;;6.00;5.40;;;;;;;29.17;40.22;96887.59;5116552;28;20076;-62
2022/05/16 06:59:07;;;;;;;6.78;5.53;;;;;;;28.76;40.45;96883.81;5116535;28;20027;-62
2022/05/16 07:01:33;;;;;;;14.52;5.88;;;;;;;28.02;42.36;96879.88;5116491;28;20027;-60
2022/05/16 07:03:59;;;;;;;6.00;5.05;;;;;;;28.03;43.51;96880.72;5116485;28;20103;-61
2022/05/16 07:06:24;;;;;;;5.00;4.53;;;;;;;28.16;42.54;96881.13;5116498;28;20422;-62
2022/05/16 07:08:50;;;;;;;6.40;4.95;;;;;;;28.43;41.62;96873.00;5116345;28;20019;-60
2022/05/16 07:11:16;;;;;;;5.45;4.95;;;;;;;28.74;40.56;96875.91;5116366;28;20020;-61
2022/05/16 07:13:42;;;;;;;5.88;4.68;;;;;;;29.00;41.29;96874.13;5116281;28;20018;-62
2022/05/16 07:16:08;;;;;;;8.35;4.70;;;;;;;29.05;40.59;96879.00;5116202;28;20106;-61
2022/05/16 07:18:33;;;;;;;7.47;5.05;;;;;;;29.31;40.10;96875.31;5115307;27;20032;-60
2022/05/16 07:20:59;;;;;;;8.55;5.20;;;;;;;29.61;40.74;96875.63;5116295;28;20028;-62
2022/05/16 07:23:26;;;;;;;6.82;5.47;;;;;;;29.48;37.95;96879.66;5116118;27;20439;-61
2022/05/16 07:28:37;;;;;;;5.45;4.68;;;;;;;29.20;40.16;96877.31;5116367;28;20080;-61
2022/05/16 07:31:04;;;;;;;6.40;4.60;;;;;;;29.61;38.41;96887.25;5115987;28;20020;-60
2022/05/16 07:33:30;;;;;;;7.95;4.40;;;;;;;29.82;37.56;96891.25;5115965;28;20024;-60
2022/05/16 07:35:56;;;;;;;7.03;4.68;;;;;;;30.07;36.87;96883.06;5115970;27;20088;-61
2022/05/16 07:38:25;;;;;;;7.80;4.40;;;;;;;30.24;37.31;96878.50;5115833;28;20039;-60
2022/05/16 07:40:52;;;;;;;5.90;4.50;;;;;;;30.19;37.05;96882.75;5115835;28;20031;-63
2022/05/16 07:43:19;;;;;;;10.88;4.50;;;;;;;30.13;37.48;96882.38;5115481;28;20035;-63
2022/05/16 07:45:46;;;;;;;5.43;4.90;;;;;;;29.92;37.59;96884.81;5115689;28;20411;-62
2022/05/16 07:48:13;;;;;;;6.95;5.18;;;;;;;29.87;39.43;96880.78;5115608;28;20023;-61
2022/05/16 07:50:40;;;;;;;7.15;5.10;;;;;;;29.86;38.20;96884.50;5115605;28;20035;-63
2022/05/16 07:53:17;;;;;;;6.70;6.07;;;;;;;29.70;40.89;96884.53;5115527;28;20487;-62
2022/05/16 07:55:46;;;;;;;12.73;5.88;;;;;;;29.83;40.99;96882.13;5115524;28;20038;-63
2022/05/16 07:58:12;;;;;;;9.38;6.40;;;;;;;30.11;39.99;96875.47;5115488;28;20026;-63
2022/05/16 08:00:38;;;;;;;9.27;6.55;;;;;;;29.92;38.97;96876.75;5115510;28;20024;-62
2022/05/16 08:03:04;;;;;;;12.10;7.50;;;;;;;29.59;38.24;96878.47;5115402;28;20019;-62
2022/05/16 08:05:34;;;;;;;10.82;6.90;;;;;;;29.07;38.50;96874.31;5115388;28;20028;-62
2022/05/16 08:10:44;;;;;;;9.00;6.88;;;;;;;28.99;40.48;96865.19;5115498;28;20046;-61
2022/05/16 08:13:11;;;;;;;7.95;5.97;;;;;;;29.21;39.08;96872.78;5115210;28;20016;-62
2022/05/16 08:15:39;;;;;;;10.27;5.95;;;;;;;29.32;40.57;96871.59;5114970;28;20028;-62
2022/05/16 08:18:05;;;;;;;10.63;6.43;;;;;;;29.29;39.09;96875.50;5115119;28;20030;-63
2022/05/16 08:20:33;;;;;;;10.40;6.57;;;;;;;28.85;39.32;96868.53;5115073;28;20351;-63
2022/05/16 08:22:59;;;;;;;12.38;7.53;;;;;;;28.09;41.01;96878.25;5115044;28;20072;-61
2022/05/16 08:25:25;;;;;;;10.23;6.47;;;;;;;27.59;42.88;96877.94;5114990;28;20079;-61
2022/05/16 08:27:51;;;;;;;10.63;6.75;;;;;;;27.85;43.90;96876.28;5114880;28;20469;-63
2022/05/16 08:30:20;;;;;;;10.63;6.85;;;;;;;28.21;42.11;96872.56;5114801;28;20033;-62
2022/05/16 08:32:46;;;;;;;9.82;6.80;;;;;;;28.49;42.82;96872.34;5114783;28;20030;-62
2022/05/16 08:35:13;;;;;;;6.28;4.47;;;;;;;28.61;36.02;96865.66;5114602;28;20114;-63
2022/05/16 08:40:43;;;;;;;5.13;4.63;;;;;;;28.81;37.19;96868.03;5114032;28;20380;-61
2022/05/16 08:43:15;;;;;;;6.10;4.30;;;;;;;28.57;34.62;96875.06;5114347;28;20496;-63
2022/05/16 08:45:50;;;;;;;3.90;3.50;;;;;;;28.59;35.00;96866.84;5114508;28;20034;-61
2022/05/16 08:48:32;;;;;;;5.35;4.13;;;;;;;29.00;35.26;96863.38;5114497;28;20067;-61
2022/05/16 08:51:23;;;;;;;5.30;4.65;;;;;;;29.24;36.73;96872.44;5114483;28;20042;-63
2022/05/16 08:54:23;;;;;;;6.25;5.18;;;;;;;28.80;38.73;96870.91;5114319;28;20106;-61
2022/05/16 08:56:51;;;;;;;8.20;5.30;;;;;;;28.43;39.33;96867.59;5092543;28;20028;-62
2022/05/16 08:59:24;;;;;;;8.38;5.00;;;;;;;28.24;38.25;96872.25;5114327;28;20030;-61
2022/05/16 09:02:15;;;;;;;8.50;4.68;;;;;;;28.25;39.20;96872.09;5114285;28;20024;-62
2022/05/16 09:04:49;;;;;;;6.82;5.25;;;;;;;28.18;38.73;96870.19;5114260;28;20034;-62
2022/05/16 09:07:29;;;;;;;7.00;6.15;;;;;;;28.16;41.54;96869.50;5114096;28;20027;-62
2022/05/16 09:10:05;;;;;;;8.82;5.43;;;;;;;28.31;39.07;96872.44;5114087;28;20102;-62
2022/05/16 09:12:54;;;;;;;9.25;5.25;;;;;;;28.52;42.15;96863.94;5113975;28;20035;-63
2022/05/16 09:15:30;;;;;;;9.50;5.93;;;;;;;28.28;39.70;96856.59;5108225;28;20032;-61
2022/05/16 09:17:58;;;;;;;7.57;6.15;;;;;;;27.67;40.71;96857.53;5113942;28;20074;-61
2022/05/16 09:20:42;;;;;;;9.85;5.95;;;;;;;27.22;42.74;96858.41;5113814;28;20449;-61
2022/05/16 09:23:22;;;;;;;6.40;5.85;;;;;;;26.93;43.25;96855.94;5114021;28;20050;-62
2022/05/16 09:26:22;;;;;;;6.65;6.00;;;;;;;26.73;44.23;96859.63;5113776;28;20029;-63
2022/05/16 09:29:15;;;;;;;7.78;6.82;;;;;;;26.56;44.17;96855.94;5113891;28;20027;-63
2022/05/16 09:31:44;;;;;;;8.90;5.68;;;;;;;26.25;45.06;96854.41;5113447;28;20114;-63
2022/05/16 09:34:12;;;;;;;8.77;6.05;;;;;;;26.24;46.00;96850.03;5113708;28;20442;-62
2022/05/16 09:36:41;;;;;;;6.88;6.28;;;;;;;26.46;46.84;96847.94;5113837;28;20016;-62
2022/05/16 09:39:09;;;;;;;6.93;6.22;;;;;;;26.80;44.37;96842.91;5113764;28;20355;-63
2022/05/16 09:41:42;;;;;;;8.63;5.97;;;;;;;27.13;43.44;96843.22;5113062;28;20044;-61
2022/05/16 09:44:26;;;;;;;8.02;5.95;;;;;;;27.48;40.45;96837.94;5113473;28;20127;-63
2022/05/16 09:47:19;;;;;;;6.53;5.90;;;;;;;27.65;43.58;96838.03;5113563;28;20058;-62
2022/05/16 09:50:09;;;;;;;7.90;6.60;;;;;;;27.90;43.75;96832.78;5113537;28;20533;-64
2022/05/16 09:52:45;;;;;;;6.63;5.55;;;;;;;28.02;42.32;96833.34;5113584;28;20015;-61
2022/05/16 09:55:22;;;;;;;10.27;6.28;;;;;;;28.17;42.39;96822.81;5113503;28;20035;-62
2022/05/16 09:57:58;;;;;;;7.20;5.47;;;;;;;28.41;41.22;96824.75;5113485;28;20472;-61
2022/05/16 10:00:42;;;;;;;6.47;5.88;;;;;;;28.41;40.01;96826.63;5113428;28;20020;-62
2022/05/16 10:03:32;;;;;;;6.57;5.70;;;;;;;28.22;39.58;96821.31;5113428;28;20394;-62
2022/05/16 10:06:10;;;;;;;7.80;6.53;;;;;;;28.08;42.31;96816.56;5113572;28;20063;-63
2022/05/16 10:08:38;;;;;;;7.15;6.45;;;;;;;28.07;42.52;96815.72;5113378;28;20134;-62
2022/05/16 10:11:16;;;;;;;6.57;5.97;;;;;;;28.13;40.13;96816.91;5113515;28;20027;-63
2022/05/16 10:13:42;;;;;;;8.57;6.82;;;;;;;28.06;42.36;96805.13;5113356;28;20114;-61
2022/05/16 10:16:09;;;;;;;8.32;6.18;;;;;;;28.17;39.85;96801.31;5113357;28;20055;-61
2022/05/16 10:18:45;;;;;;;6.60;5.97;;;;;;;28.18;40.87;96801.16;5113300;28;20061;-62
2022/05/16 10:21:21;;;;;;;8.82;5.78;;;;;;;28.22;41.92;96798.97;5113351;28;20055;-62
2022/05/16 10:23:47;;;;;;;7.88;5.70;;;;;;;28.40;40.76;96798.00;5113318;28;20035;-62
2022/05/16 10:26:21;;;;;;;7.10;6.40;;;;;;;28.33;40.31;96787.09;5113235;28;20020;-62
2022/05/16 10:28:52;;;;;;;8.63;6.00;;;;;;;28.53;39.86;96782.22;5113317;28;20476;-64
2022/05/16 10:34:19;;;;;;;8.25;5.93;;;;;;;29.13;39.81;96785.63;5113335;28;20031;-64
2022/05/16 10:36:48;;;;;;;7.80;5.60;;;;;;;29.24;38.68;96786.28;5113351;28;20031;-63
2022/05/16 10:39:19;;;;;;;5.57;5.15;;;;;;;29.20;38.87;96783.06;5113126;28;20477;-60
2022/05/16 10:41:54;;;;;;;6.50;5.25;;;;;;;29.25;36.72;96790.63;5113274;28;20074;-62
2022/05/16 10:44:29;;;;;;;6.38;5.45;;;;;;;28.93;38.71;96784.28;5113042;28;20060;-62
2022/05/16 10:47:21;;;;;;;6.95;5.68;;;;;;;28.87;38.49;96770.47;5113005;28;20028;-63
2022/05/16 10:50:09;;;;;;;6.70;5.47;;;;;;;28.91;37.37;96765.59;5107143;28;20070;-61
2022/05/16 10:52:45;;;;;;;6.40;5.80;;;;;;;29.00;38.69;96769.16;5113045;28;20081;-62
2022/05/16 10:55:12;;;;;;;8.20;5.55;;;;;;;29.00;37.16;96758.38;5116606;28;20032;-62
2022/05/16 10:57:48;;;;;;;6.35;5.75;;;;;;;29.04;38.08;96764.28;5116640;28;20016;-62
2022/05/16 11:00:21;;;;;;;7.28;5.10;;;;;;;29.22;35.08;96746.06;5116646;28;20377;-61
2022/05/16 11:02:53;;;;;;;6.95;5.60;;;;;;;29.14;35.13;96741.53;5116748;28;20027;-61
2022/05/16 11:06:03;;;;;;;7.30;5.22;;;;;;;28.49;34.37;96735.16;5116602;28;20103;-63
2022/05/16 11:09:18;;;;;;;6.28;5.55;;;;;;;28.53;34.52;96730.31;5093174;28;20035;-63
2022/05/16 11:11:44;;;;;;;11.77;5.45;;;;;;;28.30;38.11;96730.97;5073562;28;20064;-63
2022/05/16 11:14:21;;;;;;;6.85;6.20;;;;;;;28.26;38.89;96731.25;5107397;28;20495;-61
2022/05/16 11:16:51;;;;;;;5.97;5.47;;;;;;;28.55;39.75;96707.59;5116415;28;20032;-63
2022/05/16 11:20:01;;;;;;;7.47;6.32;;;;;;;28.88;38.72;96699.50;5116334;28;20556;-61
2022/05/16 11:22:42;;;;;;;7.07;5.65;;;;;;;28.61;37.69;96714.16;5078469;28;20478;-62
2022/05/16 11:25:16;;;;;;;7.32;5.57;;;;;;;28.30;37.79;96718.38;5116166;28;20055;-62
2022/05/16 11:28:00;;;;;;;6.43;5.82;;;;;;;28.16;38.86;96719.81;5116093;28;20035;-62
2022/05/16 11:30:42;;;;;;;9.57;6.00;;;;;;;27.59;39.32;96703.34;5116053;28;20028;-61
2022/05/16 11:33:37;;;;;;;11.75;6.32;;;;;;;27.35;41.47;96706.78;5116069;28;20393;-61
2022/05/16 11:36:12;;;;;;;7.63;5.65;;;;;;;27.05;41.36;96720.53;5115875;27;20036;-62
2022/05/16 11:38:47;;;;;;;9.20;6.97;;;;;;;26.77;41.32;96730.56;5115825;28;20032;-61
2022/05/16 11:41:23;;;;;;;8.43;6.57;;;;;;;26.53;42.83;96745.44;5115931;28;20032;-60
2022/05/16 11:43:51;;;;;;;8.15;7.22;;;;;;;26.33;45.03;96740.25;5115534;28;20489;-63
2022/05/16 11:46:42;;;;;;;9.43;7.13;;;;;;;25.99;44.50;96744.41;5115774;27;20089;-63
2022/05/16 11:49:16;;;;;;;8.65;7.18;;;;;;;25.43;48.03;96752.44;5115688;28;20109;-64
2022/05/16 11:51:56;;;;;;;23.05;9.52;;;;;;;24.41;52.75;96737.69;5115534;28;20035;-61
2022/05/16 11:54:35;;;;;;;26.83;12.60;;;;;;;22.62;58.53;96764.66;5115630;28;20034;-63
2022/05/16 12:03:06;;;;;;;30.50;16.23;;;;;;;21.53;64.89;96755.59;5102998;28;20088;-61
2022/05/16 12:05:42;;;;;;;21.15;15.32;;;;;;;21.15;66.35;96773.59;5114969;28;20036;-63
2022/05/16 12:08:16;;;;;;;18.33;15.02;;;;;;;20.56;67.38;96770.03;5115312;28;20035;-62
2022/05/16 12:11:04;;;;;;;23.25;15.50;;;;;;;20.10;69.33;96766.34;5115320;28;20032;-60
2022/05/16 12:13:35;;;;;;;26.00;15.95;;;;;;;19.78;70.67;96757.91;5115076;28;20051;-63
2022/05/16 12:16:15;;;;;;;25.48;15.50;;;;;;;19.44;72.10;96757.66;5115097;28;20027;-61
2022/05/16 12:18:46;;;;;;;26.67;16.83;;;;;;;19.35;73.13;96764.47;5115178;28;20381;-62
2022/05/16 12:21:17;;;;;;;21.70;17.10;;;;;;;19.42;74.77;96762.25;5115091;28;20035;-61